Time;durP1;ratioP1;P1;durP2;ratioP2;P2;SDS_P1;SDS_P2;PMS_P1;PMS_P2;Temp;Humidity;BMP_temperature;BMP_pressure;BME280_temperature;BME280_humidity;BME280_pressure;Samples;Min_cycle;Max_cycle;Signal;HPM_P1;HPM_P2
2022/04/13 04:00:29;;;;;;;9.20;8.20;;;12.90;99.90;;;;;;6050857;23;20413;31
2022/04/13 04:02:55;;;;;;;9.40;7.70;;;12.80;99.90;;;;;;4939001;29;20241;-61
2022/04/13 04:05:22;;;;;;;8.70;7.53;;;12.80;99.90;;;;;;4939996;29;20449;-62
2022/04/13 04:07:49;;;;;;;11.53;7.67;;;12.80;99.90;;;;;;4939959;29;20511;-62
2022/04/13 04:10:16;;;;;;;13.07;8.40;;;12.80;99.90;;;;;;4938852;29;20964;-63
2022/04/13 04:12:43;;;;;;;8.33;7.53;;;12.80;99.90;;;;;;4920900;29;20458;-62
2022/04/13 04:15:11;;;;;;;12.20;8.60;;;12.80;99.90;;;;;;4921050;29;20481;-63
2022/04/13 04:17:39;;;;;;;11.53;8.00;;;12.80;99.90;;;;;;4920913;29;20533;-64
2022/04/13 04:20:07;;;;;;;13.13;6.90;;;12.80;99.90;;;;;;4920617;29;20457;-62
2022/04/13 04:22:35;;;;;;;10.07;7.20;;;12.80;99.90;;;;;;4921170;29;20464;-61
2022/04/13 04:25:02;;;;;;;8.40;7.40;;;12.80;99.90;;;;;;4920440;29;20450;-62
2022/04/13 04:27:29;;;;;;;8.00;7.20;;;12.70;99.90;;;;;;4920912;29;20534;-62
2022/04/13 04:29:56;;;;;;;8.93;8.00;;;12.70;99.90;;;;;;4920809;29;20462;-63
2022/04/13 04:32:23;;;;;;;11.23;8.13;;;12.70;99.90;;;;;;4920423;29;20477;-64
2022/04/13 04:34:51;;;;;;;7.90;7.07;;;12.70;99.90;;;;;;4920568;29;20493;-62
2022/04/13 04:37:18;;;;;;;8.30;7.50;;;12.70;99.90;;;;;;4920315;29;20461;-63
2022/04/13 04:39:45;;;;;;;8.60;7.50;;;12.70;99.90;;;;;;4921045;29;20457;-62
2022/04/13 04:42:12;;;;;;;8.70;7.90;;;12.60;99.90;;;;;;4920686;29;20568;-62
2022/04/13 04:44:38;;;;;;;8.57;7.80;;;12.60;99.90;;;;;;4920101;29;20505;-63
2022/04/13 04:47:05;;;;;;;9.43;8.57;;;12.60;99.90;;;;;;4920366;29;20807;-64
2022/04/13 04:49:32;;;;;;;9.00;7.97;;;12.60;99.90;;;;;;4920308;29;20457;-62
2022/04/13 04:52:00;;;;;;;11.00;7.23;;;12.50;99.90;;;;;;4920217;29;20568;-62
2022/04/13 04:54:27;;;;;;;9.80;6.80;;;12.50;99.90;;;;;;4920119;29;20485;-63
2022/04/13 04:56:53;;;;;;;7.93;7.17;;;12.50;99.90;;;;;;4919705;29;20461;-63
2022/04/13 04:59:20;;;;;;;11.37;7.37;;;12.50;99.90;;;;;;4919880;29;20464;-62
2022/04/13 05:01:47;;;;;;;9.43;8.43;;;12.40;99.90;;;;;;4919822;29;20498;-63
2022/04/13 05:04:13;;;;;;;9.67;7.20;;;12.40;99.90;;;;;;4920042;29;20457;-62
2022/04/13 05:06:40;;;;;;;12.57;7.43;;;12.40;99.90;;;;;;4919774;29;20457;-64
2022/04/13 05:09:08;;;;;;;11.40;7.30;;;12.30;99.90;;;;;;4919817;29;20458;-64
2022/04/13 05:11:35;;;;;;;9.53;7.57;;;12.30;99.90;;;;;;4918482;29;20989;-63
2022/04/13 05:14:02;;;;;;;7.93;6.93;;;12.30;99.90;;;;;;4919496;29;20492;-64
2022/04/13 05:16:29;;;;;;;13.30;8.07;;;12.30;99.90;;;;;;4919637;29;20457;-62
2022/04/13 05:18:55;;;;;;;10.40;8.73;;;12.30;99.90;;;;;;4919189;29;20957;-62
2022/04/13 05:21:22;;;;;;;11.17;8.30;;;12.30;99.90;;;;;;4919831;29;20882;-62
2022/04/13 05:23:49;;;;;;;7.77;7.07;;;12.40;99.90;;;;;;4919259;29;20464;-62
2022/04/13 05:26:18;;;;;;;8.13;7.33;;;12.40;99.90;;;;;;4919968;29;20465;-62
2022/04/13 05:28:46;;;;;;;10.30;7.20;;;12.50;99.90;;;;;;4919508;29;20887;-60
2022/04/13 05:31:12;;;;;;;8.10;7.27;;;12.60;99.90;;;;;;4919392;29;20509;-62
2022/04/13 05:33:39;;;;;;;8.70;7.80;;;12.60;99.90;;;;;;4919501;29;20516;-62
2022/04/13 05:36:07;;;;;;;9.03;6.90;;;12.70;99.90;;;;;;4919391;29;20540;-62
2022/04/13 05:38:34;;;;;;;9.87;7.00;;;12.70;99.90;;;;;;4919317;29;20457;-62
2022/04/13 05:41:01;;;;;;;9.17;6.87;;;12.80;99.90;;;;;;4919079;29;20505;-63
2022/04/13 05:43:31;;;;;;;11.70;7.90;;;12.90;99.90;;;;;;4932356;29;20457;-62
2022/04/13 05:45:58;;;;;;;8.23;7.10;;;12.90;99.90;;;;;;4919878;29;20497;-64
2022/04/13 05:48:25;;;;;;;12.80;7.10;;;13.00;99.90;;;;;;4919090;29;20469;-62
2022/04/13 05:50:52;;;;;;;8.33;7.53;;;13.10;99.90;;;;;;4918554;29;20480;-62
2022/04/13 05:53:19;;;;;;;10.87;8.07;;;13.10;99.90;;;;;;4919342;29;20503;-62
2022/04/13 05:55:46;;;;;;;8.90;7.60;;;13.20;99.90;;;;;;4919462;29;20504;-62
2022/04/13 05:58:13;;;;;;;10.60;7.30;;;13.20;99.90;;;;;;4919427;29;20457;-62
2022/04/13 06:00:41;;;;;;;8.63;7.53;;;13.30;99.90;;;;;;4920878;29;20489;-62
2022/04/13 06:03:08;;;;;;;9.10;7.90;;;13.40;99.90;;;;;;4918908;29;20474;-61
2022/04/13 06:05:38;;;;;;;9.57;7.90;;;13.50;99.90;;;;;;4918572;29;20490;-61
2022/04/13 06:08:05;;;;;;;12.60;7.93;;;13.70;99.90;;;;;;4919562;29;20815;-62
2022/04/13 06:10:32;;;;;;;10.90;6.77;;;14.00;99.90;;;;;;4918513;29;20484;-62
2022/04/13 06:12:59;;;;;;;10.77;7.67;;;14.30;99.90;;;;;;4918437;29;20461;-62
2022/04/13 06:15:28;;;;;;;10.17;7.30;;;14.60;99.90;;;;;;4918047;29;20924;-62
2022/04/13 06:17:56;;;;;;;7.43;6.67;;;14.80;99.90;;;;;;4918398;29;20945;-61
2022/04/13 06:20:23;;;;;;;9.40;6.97;;;15.10;99.90;;;;;;4918007;29;20945;-62
2022/04/13 06:22:52;;;;;;;11.20;6.53;;;15.20;99.90;;;;;;4917690;29;20465;-64
2022/04/13 06:25:19;;;;;;;11.90;7.20;;;15.40;99.90;;;;;;4917918;29;20983;-62
2022/04/13 06:27:46;;;;;;;7.97;7.27;;;15.50;99.90;;;;;;4918251;29;20457;-62
2022/04/13 06:30:14;;;;;;;11.67;7.07;;;15.70;99.90;;;;;;4918194;29;20462;-62
2022/04/13 06:32:42;;;;;;;9.37;7.40;;;16.10;99.90;;;;;;4918767;29;20462;-62
2022/04/13 06:35:12;;;;;;;7.10;6.40;;;16.40;99.90;;;;;;4918213;29;20533;-62
2022/04/13 06:37:40;;;;;;;8.07;7.37;;;16.70;99.90;;;;;;4918023;29;20853;-62
2022/04/13 06:40:08;;;;;;;7.27;6.67;;;16.90;99.90;;;;;;4917882;29;20464;-63
2022/04/13 06:42:37;;;;;;;7.40;6.80;;;17.30;99.90;;;;;;4917970;29;20481;-63
2022/04/13 06:45:04;;;;;;;8.27;7.57;;;17.40;99.90;;;;;;4917755;29;20837;-63
2022/04/13 06:47:30;;;;;;;7.23;6.30;;;17.50;99.90;;;;;;4917783;29;20834;-63
2022/04/13 06:49:57;;;;;;;8.63;6.90;;;17.70;99.90;;;;;;4917992;29;20549;-63
2022/04/13 06:52:25;;;;;;;6.80;6.17;;;17.90;99.90;;;;;;4917691;29;20477;-63
2022/04/13 06:54:52;;;;;;;6.97;6.47;;;18.10;99.90;;;;;;4917783;29;21016;-63
2022/04/13 06:57:19;;;;;;;9.03;6.43;;;18.10;99.90;;;;;;4918270;29;20464;-62
2022/04/13 06:59:45;;;;;;;12.27;6.50;;;18.10;99.90;;;;;;4918665;29;20530;-62
2022/04/13 07:02:12;;;;;;;8.80;6.70;;;18.40;99.90;;;;;;4917685;29;20485;-62
2022/04/13 07:04:40;;;;;;;8.67;6.63;;;18.70;99.90;;;;;;4917874;29;20817;-63
2022/04/13 07:07:06;;;;;;;9.63;7.73;;;19.00;99.90;;;;;;4917708;29;20557;-62
2022/04/13 07:09:35;;;;;;;7.97;7.20;;;19.40;99.10;;;;;;4917802;29;20462;-62
2022/04/13 07:12:01;;;;;;;7.67;7.03;;;19.70;98.10;;;;;;4917671;29;20473;-63
2022/04/13 07:14:28;;;;;;;7.90;7.10;;;20.00;98.20;;;;;;4917580;29;20464;-62
2022/04/13 07:16:55;;;;;;;8.60;6.40;;;20.30;95.90;;;;;;4917733;29;20472;-62
2022/04/13 07:19:22;;;;;;;12.30;7.33;;;20.40;95.20;;;;;;4918363;29;20457;-61
2022/04/13 07:21:48;;;;;;;10.27;6.60;;;20.60;95.10;;;;;;4918227;29;21023;-62
2022/04/13 07:24:15;;;;;;;7.00;6.40;;;20.60;94.80;;;;;;4918631;29;20468;-62
2022/04/13 07:26:43;;;;;;;8.60;6.40;;;20.70;94.20;;;;;;4918067;29;20457;-63
2022/04/13 07:29:10;;;;;;;9.93;7.80;;;20.80;93.60;;;;;;4917739;29;20532;-63
2022/04/13 07:31:36;;;;;;;8.13;6.47;;;21.10;93.40;;;;;;4917615;29;20477;-63
2022/04/13 07:34:03;;;;;;;8.10;6.77;;;21.40;93.10;;;;;;4917642;29;20474;-63
2022/04/13 07:36:30;;;;;;;7.90;7.20;;;21.70;92.10;;;;;;4920238;29;20480;-62
2022/04/13 07:38:56;;;;;;;8.50;6.57;;;21.90;91.30;;;;;;4921432;29;20457;-62
2022/04/13 07:41:23;;;;;;;8.70;7.90;;;22.20;90.60;;;;;;4921652;29;20489;-64
2022/04/13 07:43:51;;;;;;;8.50;7.70;;;22.30;87.90;;;;;;4921507;29;20465;-62
2022/04/13 07:46:18;;;;;;;9.47;6.90;;;22.60;87.80;;;;;;4921222;29;20461;-63
2022/04/13 07:48:45;;;;;;;9.23;6.53;;;22.80;89.70;;;;;;4921548;29;21016;-63
2022/04/13 07:51:12;;;;;;;9.80;6.80;;;23.10;84.90;;;;;;4921428;29;20481;-63
2022/04/13 07:53:39;;;;;;;7.90;6.73;;;23.20;85.10;;;;;;4921242;29;20953;-62
2022/04/13 07:56:06;;;;;;;7.90;7.13;;;23.30;83.40;;;;;;4921074;29;20473;-63
2022/04/13 07:58:33;;;;;;;24.97;22.20;;;23.20;83.30;;;;;;4921196;29;20460;-62
2022/04/13 08:01:01;;;;;;;13.00;10.37;;;23.70;84.10;;;;;;4920767;29;20485;-63
2022/04/13 08:03:28;;;;;;;9.53;7.50;;;24.30;79.70;;;;;;4920801;29;20954;-63
2022/04/13 08:05:54;;;;;;;10.10;7.23;;;24.60;77.40;;;;;;4921019;29;20457;-63
2022/04/13 08:08:21;;;;;;;7.17;6.27;;;25.00;77.30;;;;;;4920910;29;20457;-63
2022/04/13 08:10:47;;;;;;;9.83;6.10;;;25.40;76.10;;;;;;4921206;29;20480;-64
2022/04/13 08:13:14;;;;;;;6.73;5.30;;;26.00;70.90;;;;;;4920843;29;20457;-63
2022/04/13 08:15:41;;;;;;;8.70;5.90;;;26.30;72.10;;;;;;4920812;29;20518;-63
2022/04/13 08:18:09;;;;;;;10.63;6.50;;;26.80;67.80;;;;;;4920649;29;20536;-62
2022/04/13 08:20:36;;;;;;;7.93;6.50;;;27.10;66.10;;;;;;4920648;29;20488;-63
2022/04/13 08:23:02;;;;;;;7.13;5.70;;;27.10;64.40;;;;;;4920797;29;20814;-63
2022/04/13 08:25:30;;;;;;;11.03;6.17;;;27.40;65.80;;;;;;4920828;29;20457;-63
2022/04/13 08:27:57;;;;;;;9.30;6.83;;;27.40;67.70;;;;;;4921263;29;20821;-63
2022/04/13 08:30:25;;;;;;;12.60;7.00;;;27.40;68.00;;;;;;4920519;29;20489;-63
2022/04/13 08:32:52;;;;;;;7.17;6.47;;;27.60;69.00;;;;;;4920607;29;20799;-63
2022/04/13 08:35:20;;;;;;;7.97;6.53;;;28.10;65.40;;;;;;4920442;29;20477;-64
2022/04/13 08:37:46;;;;;;;8.63;6.77;;;28.30;64.00;;;;;;4920444;29;20460;-63
2022/04/13 08:40:16;;;;;;;7.50;6.70;;;28.60;63.30;;;;;;4920332;29;20464;-63
2022/04/13 08:42:47;;;;;;;7.13;6.30;;;28.80;61.30;;;;;;4920851;29;20520;-62
2022/04/13 08:45:21;;;;;;;6.50;5.90;;;29.00;62.90;;;;;;4921514;29;20520;-62
2022/04/13 08:47:49;;;;;;;15.20;6.20;;;29.40;62.30;;;;;;4920537;29;20445;-61
2022/04/13 08:50:18;;;;;;;10.77;6.10;;;29.70;60.60;;;;;;4920247;29;20999;-63
2022/04/13 08:52:52;;;;;;;13.93;8.20;;;29.50;62.90;;;;;;4920862;29;20457;-63
2022/04/13 08:55:22;;;;;;;7.03;6.33;;;29.30;63.30;;;;;;4920979;29;20501;-62
2022/04/13 08:57:50;;;;;;;7.47;6.77;;;29.20;58.60;;;;;;4920759;29;20969;-62
2022/04/13 09:00:18;;;;;;;9.17;5.87;;;28.70;58.70;;;;;;4920311;29;20458;-64
2022/04/13 09:03:15;;;;;;;8.90;6.83;;;28.90;62.50;;;;;;4919735;29;20909;-63
2022/04/13 09:05:44;;;;;;;7.27;6.03;;;28.90;59.60;;;;;;4919895;29;20442;-63
2022/04/13 09:08:17;;;;;;;8.33;4.70;;;28.90;59.80;;;;;;4920061;29;20457;-63
2022/04/13 09:10:45;;;;;;;10.80;4.40;;;28.90;60.70;;;;;;4919916;29;20485;-63
2022/04/13 09:13:12;;;;;;;10.10;4.77;;;29.10;57.60;;;;;;4920523;29;20489;-63
2022/04/13 09:15:40;;;;;;;5.93;3.57;;;29.20;56.00;;;;;;4919363;29;20489;-67
2022/04/13 09:18:07;;;;;;;6.03;4.27;;;29.30;56.50;;;;;;4919686;29;20815;-63
2022/04/13 09:20:34;;;;;;;4.00;3.60;;;29.40;55.90;;;;;;4919601;29;20560;-63
2022/04/13 09:23:01;;;;;;;6.30;4.43;;;29.20;52.00;;;;;;4919757;29;20461;-62
2022/04/13 09:25:32;;;;;;;6.50;3.80;;;28.90;53.50;;;;;;4919661;29;20465;-63
2022/04/13 09:27:59;;;;;;;5.57;4.10;;;29.00;56.20;;;;;;4919662;29;20532;-64
2022/04/13 09:30:26;;;;;;;5.30;4.10;;;29.10;54.30;;;;;;4919453;29;20580;-63
2022/04/13 09:32:53;;;;;;;11.13;4.80;;;29.30;54.80;;;;;;4919369;29;20464;-63
2022/04/13 09:35:20;;;;;;;3.90;3.60;;;29.40;52.90;;;;;;4919246;29;20508;-62
2022/04/13 09:37:47;;;;;;;4.23;3.77;;;29.30;51.90;;;;;;4919258;29;20465;-62
2022/04/13 09:40:38;;;;;;;6.07;4.23;;;29.30;52.30;;;;;;4919009;29;20464;-62
2022/04/13 09:43:06;;;;;;;6.40;3.93;;;29.20;54.20;;;;;;4919226;29;20456;-63
2022/04/13 09:45:35;;;;;;;3.37;3.10;;;29.20;53.20;;;;;;4919202;29;20453;-63
2022/04/13 09:48:06;;;;;;;3.40;3.10;;;29.10;50.10;;;;;;4919145;29;20464;-64
2022/04/13 09:50:33;;;;;;;6.17;3.30;;;29.30;50.00;;;;;;4920315;29;20516;-63
2022/04/13 09:53:05;;;;;;;3.87;3.30;;;29.70;53.70;;;;;;4920454;29;20465;-62
2022/04/13 09:55:34;;;;;;;5.60;3.30;;;29.90;49.70;;;;;;4920136;29;20469;-63
2022/04/13 09:58:06;;;;;;;7.93;3.67;;;30.00;50.00;;;;;;4918956;29;20933;-63
2022/04/13 10:00:34;;;;;;;6.90;4.10;;;30.00;49.50;;;;;;4918777;29;20492;-62
2022/04/13 10:03:09;;;;;;;3.67;2.87;;;30.00;50.20;;;;;;4919114;29;20464;-63
2022/04/13 10:05:37;;;;;;;3.20;2.70;;;30.10;48.60;;;;;;4918627;29;20960;-63
2022/04/13 10:08:05;;;;;;;4.17;3.07;;;29.70;46.90;;;;;;4918517;29;20975;-63
2022/04/13 10:10:32;;;;;;;5.43;3.00;;;29.60;47.90;;;;;;4918645;29;20461;-63
2022/04/13 10:12:58;;;;;;;4.70;2.10;;;29.50;47.90;;;;;;4919397;29;20534;-63
2022/04/13 10:15:27;;;;;;;5.10;2.77;;;29.60;46.90;;;;;;4918549;29;20461;-63
2022/04/13 10:17:58;;;;;;;5.30;2.70;;;30.00;47.10;;;;;;4918609;29;20489;-63
2022/04/13 10:20:40;;;;;;;3.40;3.10;;;30.30;47.50;;;;;;4918642;29;20533;-63
2022/04/13 10:23:07;;;;;;;9.00;3.70;;;30.40;47.30;;;;;;4918627;29;20453;-63
2022/04/13 10:25:34;;;;;;;6.23;3.27;;;29.60;47.30;;;;;;4918506;29;20469;-62
2022/04/13 10:28:03;;;;;;;7.30;3.60;;;29.80;48.80;;;;;;4918409;29;20461;-62
2022/04/13 10:30:33;;;;;;;5.73;3.47;;;30.00;52.30;;;;;;4918620;29;20453;-63
2022/04/13 10:33:01;;;;;;;8.37;3.33;;;30.00;48.90;;;;;;4918764;29;20482;-63
2022/04/13 10:35:30;;;;;;;5.80;2.90;;;29.50;48.30;;;;;;4918000;29;20854;-64
2022/04/13 10:37:56;;;;;;;6.83;3.40;;;29.00;47.70;;;;;;4918264;29;20465;-63
2022/04/13 10:40:25;;;;;;;6.47;2.90;;;28.70;49.80;;;;;;4918006;29;20462;-63
2022/04/13 10:42:53;;;;;;;6.97;2.20;;;28.20;48.40;;;;;;4918278;29;20484;-63
2022/04/13 10:45:20;;;;;;;5.27;1.83;;;28.30;50.40;;;;;;4918360;29;20488;-63
2022/04/13 10:47:56;;;;;;;2.50;1.93;;;28.50;46.70;;;;;;4918279;29;20464;-63
2022/04/13 10:50:35;;;;;;;5.60;2.07;;;28.80;46.70;;;;;;4918410;29;20437;-65
2022/04/13 10:53:10;;;;;;;5.23;2.13;;;28.80;45.50;;;;;;4918165;29;20462;-63
2022/04/13 10:55:37;;;;;;;4.17;2.00;;;29.20;47.70;;;;;;4918806;29;20512;-64
2022/04/13 10:58:11;;;;;;;5.40;2.10;;;29.50;47.40;;;;;;4918168;29;20868;-64
2022/04/13 11:00:41;;;;;;;3.83;2.00;;;29.70;46.20;;;;;;4917789;29;20485;-64
2022/04/13 11:03:09;;;;;;;4.20;2.07;;;29.20;46.50;;;;;;4919648;29;20441;-63
2022/04/13 11:05:36;;;;;;;3.90;2.47;;;29.20;48.30;;;;;;4930143;29;20437;-63
2022/04/13 11:08:17;;;;;;;3.40;2.30;;;29.50;48.90;;;;;;4934242;29;20457;-63
2022/04/13 11:10:47;;;;;;;6.70;2.10;;;29.60;49.20;;;;;;4933128;29;20472;-63
2022/04/13 11:13:15;;;;;;;3.30;2.47;;;29.80;50.90;;;;;;4934126;29;20452;-63
2022/04/13 11:15:44;;;;;;;3.50;2.10;;;29.90;48.80;;;;;;4925242;29;20973;-63
2022/04/13 11:18:13;;;;;;;1.80;1.63;;;30.10;49.50;;;;;;4920875;29;20587;-64
2022/04/13 11:21:04;;;;;;;3.10;2.00;;;30.00;47.60;;;;;;4918693;29;20484;-63
2022/04/13 11:23:51;;;;;;;6.10;2.07;;;29.60;46.40;;;;;;4918090;29;20446;-65
2022/04/13 11:26:26;;;;;;;5.43;1.80;;;29.30;50.80;;;;;;4918022;29;20433;-64
2022/04/13 11:29:15;;;;;;;6.53;2.43;;;29.40;46.10;;;;;;4918018;29;20525;-63
2022/04/13 11:32:10;;;;;;;4.03;2.27;;;29.10;45.90;;;;;;4917796;29;20533;-63
2022/04/13 11:34:41;;;;;;;3.30;2.37;;;28.80;47.90;;;;;;4918476;29;20442;-63
2022/04/13 11:37:10;;;;;;;1.97;1.77;;;28.30;47.00;;;;;;4917897;29;20473;-63
2022/04/13 11:39:47;;;;;;;6.80;1.90;;;28.30;47.10;;;;;;4918027;29;20461;-63
2022/04/13 11:42:46;;;;;;;4.73;1.70;;;28.30;47.50;;;;;;4924503;29;20484;-63
2022/04/13 11:45:15;;;;;;;7.83;2.37;;;28.10;46.30;;;;;;4918052;29;20454;-62
2022/04/13 11:47:43;;;;;;;5.17;2.63;;;27.80;47.70;;;;;;4918122;29;20462;-64
2022/04/13 11:50:20;;;;;;;4.50;1.93;;;27.60;49.30;;;;;;4918224;29;20468;-63
2022/04/13 11:52:49;;;;;;;2.20;2.00;;;27.70;49.90;;;;;;4917565;29;20927;-65
2022/04/13 11:55:17;;;;;;;5.53;1.80;;;27.90;49.10;;;;;;4918919;29;20508;-64
2022/04/13 11:58:19;;;;;;;3.43;1.50;;;27.90;48.80;;;;;;4918073;29;20481;-64
2022/04/13 12:00:55;;;;;;;3.00;1.73;;;27.60;48.10;;;;;;4913617;29;20524;-64
2022/04/13 12:03:25;;;;;;;5.67;1.90;;;27.50;48.80;;;;;;4917420;29;20944;-63
2022/04/13 12:05:53;;;;;;;5.87;2.37;;;27.20;49.40;;;;;;4918000;29;20497;-64
2022/04/13 12:08:22;;;;;;;4.63;2.13;;;27.10;49.50;;;;;;4920836;29;20810;-64
2022/04/13 12:10:50;;;;;;;3.50;2.33;;;26.80;49.70;;;;;;4926368;29;20472;-63
2022/04/13 12:13:17;;;;;;;4.17;2.40;;;26.50;50.00;;;;;;4921519;29;20512;-64
2022/04/13 12:15:47;;;;;;;3.80;2.17;;;26.30;50.90;;;;;;4917316;29;20803;-63
2022/04/13 12:18:15;;;;;;;7.37;2.67;;;26.10;51.70;;;;;;4917385;29;20568;-64
2022/04/13 12:20:42;;;;;;;5.87;2.50;;;26.00;51.80;;;;;;4917093;29;20484;-65
2022/04/13 12:23:25;;;;;;;4.80;2.60;;;26.20;53.70;;;;;;4920938;29;20501;-64
2022/04/13 12:25:53;;;;;;;5.50;2.70;;;26.30;53.00;;;;;;4920802;29;20528;-64
2022/04/13 12:28:22;;;;;;;4.20;2.80;;;26.60;54.20;;;;;;4920782;29;20461;-64
2022/04/13 12:30:57;;;;;;;3.03;2.63;;;27.00;55.10;;;;;;4920706;29;20910;-63
2022/04/13 12:33:25;;;;;;;5.00;2.60;;;27.20;53.40;;;;;;4920852;29;20490;-63
2022/04/13 12:35:53;;;;;;;6.03;2.13;;;27.40;54.40;;;;;;4923597;29;20556;-64
2022/04/13 12:38:25;;;;;;;2.70;2.30;;;27.70;53.00;;;;;;4930701;29;20560;-64
2022/04/13 12:41:15;;;;;;;3.83;2.53;;;27.70;52.20;;;;;;4921239;29;20488;-64
2022/04/13 12:43:43;;;;;;;3.63;2.43;;;27.60;53.00;;;;;;4920575;29;20448;-64
2022/04/13 12:46:19;;;;;;;9.23;2.93;;;27.70;53.50;;;;;;4920384;29;20464;-64
2022/04/13 12:48:47;;;;;;;6.80;3.10;;;27.70;52.00;;;;;;4921749;29;20445;-63
2022/04/13 12:51:15;;;;;;;5.37;3.60;;;27.40;52.60;;;;;;4923164;29;20488;-63
2022/04/13 12:53:44;;;;;;;7.77;3.40;;;27.60;52.60;;;;;;4922629;29;20457;-64
2022/04/13 12:56:13;;;;;;;5.87;3.23;;;27.70;54.10;;;;;;4922501;29;20458;-63
2022/04/13 12:58:42;;;;;;;4.40;3.20;;;27.80;53.20;;;;;;4920060;29;20461;-63
2022/04/13 13:01:10;;;;;;;6.13;2.80;;;27.90;52.60;;;;;;4919825;29;20497;-64
2022/04/13 13:03:40;;;;;;;5.20;2.90;;;28.00;51.90;;;;;;4919851;29;20468;-64
2022/04/13 13:06:09;;;;;;;4.73;2.60;;;27.90;51.90;;;;;;4919870;29;20441;-64
2022/04/13 13:08:37;;;;;;;6.33;2.17;;;27.90;52.40;;;;;;4919948;29;20545;-64
2022/04/13 13:11:10;;;;;;;9.10;3.33;;;27.70;50.70;;;;;;4919419;29;20481;-64
2022/04/13 13:13:39;;;;;;;5.87;2.43;;;27.80;51.90;;;;;;4920113;29;20456;-63
2022/04/13 13:16:07;;;;;;;7.13;3.37;;;27.90;52.50;;;;;;4919783;29;20513;-64
2022/04/13 13:18:34;;;;;;;5.80;3.17;;;27.80;51.10;;;;;;4919587;29;20474;-64
2022/04/13 13:21:02;;;;;;;6.40;2.93;;;27.90;54.20;;;;;;4919105;29;20477;-65
2022/04/13 13:23:30;;;;;;;7.40;2.47;;;28.00;52.40;;;;;;4919553;29;20462;-64
2022/04/13 13:25:58;;;;;;;5.10;2.50;;;28.00;51.70;;;;;;4919569;29;20556;-63
2022/04/13 13:28:26;;;;;;;5.00;2.90;;;27.80;51.40;;;;;;4919601;29;20481;-63
2022/04/13 13:30:55;;;;;;;5.47;2.23;;;27.60;52.00;;;;;;4919359;29;20993;-64
2022/04/13 13:33:22;;;;;;;4.90;2.80;;;27.50;52.10;;;;;;4918722;29;20477;-63
2022/04/13 13:35:48;;;;;;;2.93;1.80;;;27.40;52.00;;;;;;4919676;29;20544;-63
2022/04/13 13:38:19;;;;;;;4.77;2.27;;;27.40;52.40;;;;;;4919551;29;20588;-64
2022/04/13 13:40:48;;;;;;;4.83;3.27;;;27.50;52.90;;;;;;4919659;29;20830;-64
2022/04/13 13:43:35;;;;;;;3.17;2.30;;;27.60;52.30;;;;;;4919988;29;20461;-64
2022/04/13 13:46:14;;;;;;;6.30;2.43;;;27.60;52.00;;;;;;4919002;29;20457;-64
2022/04/13 13:48:40;;;;;;;3.40;2.57;;;27.40;52.70;;;;;;4919414;29;20437;-64
2022/04/13 13:51:08;;;;;;;4.93;2.17;;;27.40;52.90;;;;;;4919345;29;20481;-64
2022/04/13 13:53:36;;;;;;;4.80;2.00;;;27.60;53.00;;;;;;4919351;29;20496;-63
2022/04/13 13:56:03;;;;;;;5.10;2.67;;;27.70;52.90;;;;;;4919136;29;20552;-63
2022/04/13 13:58:30;;;;;;;2.90;2.27;;;27.70;52.20;;;;;;4918920;29;20477;-64
2022/04/13 14:00:58;;;;;;;6.50;2.20;;;27.70;52.80;;;;;;4918720;29;20488;-64
2022/04/13 14:03:25;;;;;;;6.60;2.80;;;27.70;50.80;;;;;;4918676;29;20461;-64
2022/04/13 14:05:51;;;;;;;4.90;2.20;;;27.60;51.50;;;;;;4918762;29;20817;-64
2022/04/13 14:08:18;;;;;;;4.43;2.30;;;27.70;53.40;;;;;;4918818;29;20941;-64
2022/04/13 14:10:47;;;;;;;3.40;2.10;;;27.90;52.30;;;;;;4919293;29;20989;-63
2022/04/13 14:13:15;;;;;;;3.43;2.23;;;28.00;53.20;;;;;;4919457;29;20468;-63
2022/04/13 14:15:42;;;;;;;3.77;2.33;;;28.10;52.20;;;;;;4919065;29;20458;-64
2022/04/13 14:18:09;;;;;;;8.63;2.57;;;28.10;51.80;;;;;;4918743;29;20509;-63
2022/04/13 14:20:36;;;;;;;7.10;2.83;;;28.10;52.00;;;;;;4918609;29;20485;-63
2022/04/13 14:23:02;;;;;;;2.47;1.90;;;27.80;53.20;;;;;;4918423;29;20462;-64
2022/04/13 14:25:29;;;;;;;6.80;2.17;;;27.90;52.20;;;;;;4918578;29;20464;-63
2022/04/13 14:27:59;;;;;;;9.10;2.50;;;27.80;51.40;;;;;;4919023;29;20454;-63
2022/04/13 14:30:27;;;;;;;8.20;3.50;;;27.60;51.40;;;;;;4918539;29;20461;-63
2022/04/13 14:32:54;;;;;;;4.60;2.30;;;27.40;51.00;;;;;;4918438;29;20946;-63
2022/04/13 14:35:21;;;;;;;7.67;2.50;;;27.30;52.70;;;;;;4918705;29;20489;-64
2022/04/13 14:37:52;;;;;;;2.93;1.80;;;27.10;51.40;;;;;;4918249;29;20481;-64
2022/04/13 14:40:19;;;;;;;4.70;2.27;;;27.10;52.20;;;;;;4918252;29;20441;-64
2022/04/13 14:42:47;;;;;;;11.57;2.90;;;27.10;52.80;;;;;;4918065;29;20960;-64
2022/04/13 14:45:15;;;;;;;7.57;3.30;;;27.20;51.70;;;;;;4918198;29;20888;-64
2022/04/13 14:47:42;;;;;;;5.33;2.00;;;27.00;52.00;;;;;;4918620;29;20485;-64
2022/04/13 14:50:10;;;;;;;6.10;2.03;;;27.00;51.70;;;;;;4926065;29;20464;-64
2022/04/13 14:52:38;;;;;;;5.07;2.23;;;26.90;50.60;;;;;;4922538;29;20577;-65
2022/04/13 14:55:06;;;;;;;9.17;4.30;;;26.90;50.60;;;;;;4918195;29;20885;-65
2022/04/13 14:57:34;;;;;;;2.13;1.93;;;26.70;51.10;;;;;;4918019;29;20583;-64
2022/04/13 15:00:01;;;;;;;3.17;2.17;;;26.60;51.70;;;;;;4918717;29;20536;-64
2022/04/13 15:02:29;;;;;;;4.13;2.00;;;26.70;52.50;;;;;;4917449;29;20526;-64
2022/04/13 15:04:56;;;;;;;2.70;2.00;;;26.70;51.90;;;;;;4917707;29;20449;-63
2022/04/13 15:07:22;;;;;;;6.13;2.30;;;26.70;51.60;;;;;;4917786;29;20457;-63
2022/04/13 15:09:49;;;;;;;10.47;2.83;;;26.70;51.20;;;;;;4921689;29;20453;-64
2022/04/13 15:12:16;;;;;;;6.27;3.10;;;26.70;51.70;;;;;;4926953;29;20996;-64
2022/04/13 15:14:43;;;;;;;5.07;1.90;;;26.70;52.10;;;;;;4923635;29;20457;-64
2022/04/13 15:17:09;;;;;;;3.80;2.43;;;26.60;51.90;;;;;;4918419;29;20458;-64
2022/04/13 15:19:38;;;;;;;7.47;2.13;;;26.50;52.90;;;;;;4917674;29;20512;-63
2022/04/13 15:22:05;;;;;;;8.33;2.27;;;26.50;52.20;;;;;;4917705;29;20506;-64
2022/04/13 15:24:33;;;;;;;13.23;4.10;;;26.40;53.00;;;;;;4917390;29;20465;-63
2022/04/13 15:27:00;;;;;;;6.23;2.27;;;26.50;52.50;;;;;;4917388;29;21016;-65
2022/04/13 15:29:27;;;;;;;7.77;2.27;;;26.50;51.80;;;;;;4917575;29;20493;-64
2022/04/13 15:31:53;;;;;;;4.80;2.40;;;26.40;52.00;;;;;;4917897;29;20485;-64
2022/04/13 15:34:20;;;;;;;6.33;2.53;;;26.50;52.40;;;;;;4917638;29;20457;-64
2022/04/13 15:36:48;;;;;;;9.33;2.43;;;26.50;52.90;;;;;;4918168;29;20461;-64
2022/04/13 15:39:15;;;;;;;4.30;2.20;;;26.50;52.80;;;;;;4918628;29;20508;-63
2022/04/13 15:41:43;;;;;;;3.83;2.40;;;26.50;52.00;;;;;;4917810;29;20571;-63
2022/04/13 15:44:11;;;;;;;8.10;2.10;;;26.30;52.10;;;;;;4917316;29;20949;-64
2022/04/13 15:46:39;;;;;;;10.57;3.73;;;26.30;53.40;;;;;;4917921;29;20465;-63
2022/04/13 15:51:42;;;;;;;8.43;3.60;;;26.10;52.60;;;;;;4917577;29;20468;-63
2022/04/13 15:54:11;;;;;;;5.63;2.57;;;26.10;52.50;;;;;;4917557;29;20453;-64
2022/04/13 15:56:38;;;;;;;6.60;2.83;;;26.00;52.30;;;;;;4919071;29;20461;-64
2022/04/13 15:59:05;;;;;;;5.13;2.63;;;25.90;53.50;;;;;;4920911;29;20994;-64
2022/04/13 16:01:33;;;;;;;4.83;2.17;;;25.70;52.90;;;;;;4921776;29;20548;-65
2022/04/13 16:04:00;;;;;;;5.53;2.40;;;25.70;53.30;;;;;;4921371;29;20457;-64
2022/04/13 16:06:27;;;;;;;7.30;3.13;;;25.60;52.90;;;;;;4921625;29;20489;-64
2022/04/13 16:08:54;;;;;;;2.90;2.37;;;25.50;53.30;;;;;;4921330;29;20453;-64
2022/04/13 16:11:22;;;;;;;3.40;3.10;;;25.40;54.40;;;;;;4921089;29;20912;-64
2022/04/13 16:13:48;;;;;;;12.00;2.87;;;25.20;53.60;;;;;;4921108;29;20461;-63
2022/04/13 16:16:15;;;;;;;5.83;2.60;;;25.10;53.60;;;;;;4921162;29;20468;-63
2022/04/13 16:18:42;;;;;;;4.80;4.27;;;24.90;54.10;;;;;;4920829;29;20485;-64
2022/04/13 16:21:09;;;;;;;6.90;5.50;;;24.80;54.00;;;;;;4920887;29;20488;-63
2022/04/13 16:23:37;;;;;;;9.57;5.13;;;24.80;55.20;;;;;;4920604;29;20825;-64
2022/04/13 16:26:04;;;;;;;10.20;6.17;;;24.70;54.40;;;;;;4921408;29;20484;-64
2022/04/13 16:28:32;;;;;;;5.90;3.97;;;24.60;54.80;;;;;;4920810;29;20457;-64
2022/04/13 16:30:59;;;;;;;34.73;31.10;;;24.60;55.20;;;;;;4920830;29;20488;-63
2022/04/13 16:33:26;;;;;;;8.73;5.33;;;24.50;55.00;;;;;;4920794;29;20456;-64
2022/04/13 16:35:53;;;;;;;2.77;2.50;;;24.50;56.00;;;;;;4920720;29;20465;-69
2022/04/13 16:38:22;;;;;;;6.27;3.43;;;24.50;55.90;;;;;;4920642;29;20540;-65
2022/04/13 16:40:49;;;;;;;6.80;5.10;;;24.50;55.90;;;;;;4920559;29;20477;-65
2022/04/13 16:43:19;;;;;;;4.20;2.73;;;24.40;56.50;;;;;;4920208;29;20461;-66
2022/04/13 16:45:47;;;;;;;6.10;3.57;;;24.30;55.70;;;;;;4921151;29;20489;-67
2022/04/13 16:48:13;;;;;;;4.43;3.17;;;24.20;56.40;;;;;;4921632;29;20457;-65
2022/04/13 16:50:40;;;;;;;12.43;3.07;;;24.20;57.10;;;;;;4920194;29;20544;-65
2022/04/13 16:53:09;;;;;;;6.90;3.50;;;24.10;56.50;;;;;;4920425;29;20461;-65
2022/04/13 16:55:36;;;;;;;4.87;2.60;;;24.00;57.60;;;;;;4920554;29;20541;-63